Time;durP1;ratioP1;P1;durP2;ratioP2;P2;SDS_P1;SDS_P2;PMS_P1;PMS_P2;Temp;Humidity;BMP_temperature;BMP_pressure;BME280_temperature;BME280_humidity;BME280_pressure;Samples;Min_cycle;Max_cycle;Signal;HPM_P1;HPM_P2
2022/02/19 00:02:09;;;;;;;49.72;30.67;;;;;;;;;;4992900;28;20472;-70
2022/02/19 00:04:36;;;;;;;50.38;33.03;;;;;;;;;;4993133;28;20448;-68
2022/02/19 00:07:03;;;;;;;48.50;30.23;;;;;;;;;;4993003;28;20057;-67
2022/02/19 00:09:29;;;;;;;49.33;32.15;;;;;;;;;;4993100;28;20467;-71
2022/02/19 00:11:55;;;;;;;51.50;32.45;;;;;;;;;;4992770;28;20128;-71
2022/02/19 00:14:21;;;;;;;45.67;32.28;;;;;;;;;;4993039;28;20074;-71
2022/02/19 00:16:48;;;;;;;47.15;31.45;;;;;;;;;;4992848;28;20042;-71
2022/02/19 00:19:14;;;;;;;42.63;29.23;;;;;;;;;;4993042;28;20097;-70
2022/02/19 00:21:40;;;;;;;49.20;31.17;;;;;;;;;;4993089;28;20035;-70
2022/02/19 00:24:07;;;;;;;55.83;31.38;;;;;;;;;;4993044;28;20042;-68
2022/02/19 00:26:33;;;;;;;43.15;31.45;;;;;;;;;;4993218;28;20026;-71
2022/02/19 00:28:59;;;;;;;45.10;30.77;;;;;;;;;;4992235;28;20082;-68
2022/02/19 00:31:25;;;;;;;50.92;30.27;;;;;;;;;;4992539;28;20031;-69
2022/02/19 00:33:53;;;;;;;48.78;30.85;;;;;;;;;;4992686;28;20133;-67
2022/02/19 00:36:19;;;;;;;43.58;30.77;;;;;;;;;;4992549;28;20027;-68
2022/02/19 00:38:45;;;;;;;40.88;29.83;;;;;;;;;;4992744;28;20041;-67
2022/02/19 00:41:11;;;;;;;38.03;28.38;;;;;;;;;;4994439;28;20114;-68
2022/02/19 00:43:37;;;;;;;42.72;29.75;;;;;;;;;;4996394;28;20479;-68
2022/02/19 00:46:03;;;;;;;38.65;28.80;;;;;;;;;;4996754;28;20073;-68
2022/02/19 00:48:29;;;;;;;43.47;29.95;;;;;;;;;;4996672;28;20290;-71
2022/02/19 00:50:55;;;;;;;42.35;29.60;;;;;;;;;;4996196;28;20038;-68
2022/02/19 00:53:21;;;;;;;44.60;29.88;;;;;;;;;;4996529;28;20045;-71
2022/02/19 00:55:47;;;;;;;42.88;30.98;;;;;;;;;;4996255;28;20502;-72
2022/02/19 00:58:13;;;;;;;51.90;29.92;;;;;;;;;;4995196;28;20038;-71
2022/02/19 01:00:39;;;;;;;35.35;28.15;;;;;;;;;;4995810;28;20038;-68
2022/02/19 01:03:05;;;;;;;39.35;28.55;;;;;;;;;;4995387;28;20053;-69
2022/02/19 01:05:31;;;;;;;47.47;30.35;;;;;;;;;;4995285;28;20046;-71
2022/02/19 01:07:57;;;;;;;47.43;30.60;;;;;;;;;;4996151;28;20039;-67
2022/02/19 01:10:23;;;;;;;44.05;30.67;;;;;;;;;;4996320;28;20040;-71
2022/02/19 01:12:49;;;;;;;54.10;32.80;;;;;;;;;;4995707;28;20502;-68
2022/02/19 01:15:16;;;;;;;48.08;31.55;;;;;;;;;;4995963;28;20026;-71
2022/02/19 01:17:43;;;;;;;48.03;30.88;;;;;;;;;;4995798;28;20058;-68
2022/02/19 01:20:10;;;;;;;47.03;32.40;;;;;;;;;;4995911;28;20535;-70
2022/02/19 01:22:39;;;;;;;50.10;33.58;;;;;;;;;;4996150;28;20042;-70
2022/02/19 01:25:05;;;;;;;47.25;34.30;;;;;;;;;;4994081;28;20042;-69
2022/02/19 01:27:31;;;;;;;49.70;34.45;;;;;;;;;;4994847;28;20022;-68
2022/02/19 01:29:58;;;;;;;51.33;35.42;;;;;;;;;;4995410;28;20080;-69
2022/02/19 01:32:24;;;;;;;49.40;35.67;;;;;;;;;;4995524;28;20062;-71
2022/02/19 01:34:50;;;;;;;52.90;36.63;;;;;;;;;;4995581;28;20428;-71
2022/02/19 01:37:17;;;;;;;54.53;37.65;;;;;;;;;;4995632;28;20073;-71
2022/02/19 01:39:44;;;;;;;54.95;35.45;;;;;;;;;;4995483;28;20426;-69
2022/02/19 01:42:11;;;;;;;48.67;34.10;;;;;;;;;;4995188;28;20046;-70
2022/02/19 01:44:38;;;;;;;56.15;36.50;;;;;;;;;;4995561;28;20093;-70
2022/02/19 01:47:05;;;;;;;52.85;34.92;;;;;;;;;;4995430;28;20045;-67
2022/02/19 01:49:31;;;;;;;49.63;36.43;;;;;;;;;;4995465;28;20038;-71
2022/02/19 01:51:57;;;;;;;50.35;35.65;;;;;;;;;;4994209;28;20038;-68
2022/02/19 01:54:23;;;;;;;52.03;35.65;;;;;;;;;;4995066;28;20080;-70
2022/02/19 01:56:49;;;;;;;50.47;35.85;;;;;;;;;;4995606;28;20030;-71
2022/02/19 01:59:15;;;;;;;53.90;35.80;;;;;;;;;;4992462;28;20089;-70
2022/02/19 02:01:41;;;;;;;57.72;38.80;;;;;;;;;;4992142;28;20542;-68
2022/02/19 02:04:07;;;;;;;51.65;37.17;;;;;;;;;;4992313;28;20057;-67
2022/02/19 02:06:34;;;;;;;62.30;38.33;;;;;;;;;;4993289;28;20034;-67
2022/02/19 02:09:00;;;;;;;59.65;39.17;;;;;;;;;;4994289;28;20435;-68
2022/02/19 02:11:27;;;;;;;59.47;39.78;;;;;;;;;;4994463;28;20067;-68
2022/02/19 02:13:53;;;;;;;65.15;40.05;;;;;;;;;;4994291;28;20065;-71
2022/02/19 02:16:19;;;;;;;61.88;40.10;;;;;;;;;;4994136;28;20538;-68
2022/02/19 02:18:45;;;;;;;63.45;39.13;;;;;;;;;;4994323;28;20034;-70
2022/02/19 02:21:12;;;;;;;58.20;38.30;;;;;;;;;;4993699;28;20042;-71
2022/02/19 02:23:38;;;;;;;58.80;38.00;;;;;;;;;;4993844;28;20054;-68
2022/02/19 02:26:04;;;;;;;61.77;37.63;;;;;;;;;;4993557;28;20134;-70
2022/02/19 02:28:31;;;;;;;59.03;38.07;;;;;;;;;;4993649;28;20383;-68
2022/02/19 02:30:57;;;;;;;58.65;36.78;;;;;;;;;;4994504;28;20039;-71
2022/02/19 02:33:23;;;;;;;59.00;37.40;;;;;;;;;;4994103;28;20057;-68
2022/02/19 02:35:50;;;;;;;61.78;36.70;;;;;;;;;;4994110;28;20034;-69
2022/02/19 02:38:17;;;;;;;61.63;37.60;;;;;;;;;;4994068;28;20093;-67
2022/02/19 02:40:44;;;;;;;59.72;37.08;;;;;;;;;;4994239;28;20054;-68
2022/02/19 02:43:10;;;;;;;62.83;36.63;;;;;;;;;;4993910;28;20042;-69
2022/02/19 02:45:37;;;;;;;59.13;37.42;;;;;;;;;;4994067;28;20117;-70
2022/02/19 02:48:04;;;;;;;60.13;37.95;;;;;;;;;;4994314;28;20042;-71
2022/02/19 02:50:30;;;;;;;60.92;38.10;;;;;;;;;;4993528;28;20077;-70
2022/02/19 02:52:57;;;;;;;64.78;37.78;;;;;;;;;;4993831;28;20418;-68
2022/02/19 02:55:23;;;;;;;64.00;37.70;;;;;;;;;;4993902;28;20065;-69
2022/02/19 02:57:49;;;;;;;70.25;41.17;;;;;;;;;;4993576;28;20027;-68
2022/02/19 03:00:18;;;;;;;70.33;41.73;;;;;;;;;;4993885;28;20030;-70
2022/02/19 03:02:44;;;;;;;75.15;43.42;;;;;;;;;;4994125;28;20046;-69
2022/02/19 03:05:11;;;;;;;73.90;41.30;;;;;;;;;;4993919;28;20069;-68
2022/02/19 03:07:38;;;;;;;76.20;43.95;;;;;;;;;;4993912;28;20102;-68
2022/02/19 03:10:05;;;;;;;83.80;47.05;;;;;;;;;;4993876;28;20034;-72
2022/02/19 03:12:31;;;;;;;78.85;45.03;;;;;;;;;;4993333;28;20121;-67
2022/02/19 03:14:57;;;;;;;94.90;44.60;;;;;;;;;;4993787;28;20518;-67
2022/02/19 03:17:23;;;;;;;90.55;45.80;;;;;;;;;;4993581;28;20030;-68
2022/02/19 03:19:49;;;;;;;90.75;46.75;;;;;;;;;;4993765;28;20394;-67
2022/02/19 03:22:15;;;;;;;91.95;48.53;;;;;;;;;;4992916;28;20041;-67
2022/02/19 03:24:42;;;;;;;89.22;46.78;;;;;;;;;;4991789;28;20046;-68
2022/02/19 03:27:08;;;;;;;87.50;43.90;;;;;;;;;;4992065;28;20523;-72
2022/02/19 03:29:35;;;;;;;84.93;45.73;;;;;;;;;;4992503;28;20487;-69
2022/02/19 03:32:02;;;;;;;75.85;41.50;;;;;;;;;;4993463;28;20077;-68
2022/02/19 03:34:28;;;;;;;82.10;43.95;;;;;;;;;;4993680;28;20478;-67
2022/02/19 03:36:54;;;;;;;81.70;42.47;;;;;;;;;;4993357;28;20034;-68
2022/02/19 03:39:20;;;;;;;75.40;40.83;;;;;;;;;;4993439;28;20058;-68
2022/02/19 03:41:46;;;;;;;78.53;40.42;;;;;;;;;;4993205;28;20038;-70
2022/02/19 03:44:12;;;;;;;83.43;39.35;;;;;;;;;;4993358;28;20038;-71
2022/02/19 03:46:38;;;;;;;80.95;38.97;;;;;;;;;;4993114;28;20027;-68
2022/02/19 03:49:06;;;;;;;69.67;38.80;;;;;;;;;;4993204;28;20426;-68
2022/02/19 03:51:32;;;;;;;75.32;39.58;;;;;;;;;;4993437;28;20041;-71
2022/02/19 03:53:58;;;;;;;72.93;39.58;;;;;;;;;;4993195;28;20141;-71
2022/02/19 03:56:24;;;;;;;67.55;38.67;;;;;;;;;;4992992;28;20097;-71
2022/02/19 03:58:50;;;;;;;70.55;38.75;;;;;;;;;;4992791;28;20039;-68
2022/02/19 04:01:16;;;;;;;68.18;38.03;;;;;;;;;;4993064;28;20387;-69
2022/02/19 04:03:42;;;;;;;68.55;37.38;;;;;;;;;;4992538;28;20526;-68
2022/02/19 04:06:08;;;;;;;75.85;38.90;;;;;;;;;;4993341;28;20030;-71
2022/02/19 04:08:35;;;;;;;67.22;36.67;;;;;;;;;;4993150;28;20537;-70
2022/02/19 04:11:01;;;;;;;60.90;36.75;;;;;;;;;;4993041;28;20031;-71
2022/02/19 04:13:27;;;;;;;63.88;36.45;;;;;;;;;;4993220;28;20505;-71
2022/02/19 04:15:53;;;;;;;63.63;35.30;;;;;;;;;;4994146;28;20073;-68
2022/02/19 04:18:19;;;;;;;61.78;35.63;;;;;;;;;;4997035;28;20041;-70
2022/02/19 04:20:45;;;;;;;60.90;36.35;;;;;;;;;;4996994;28;20035;-68
2022/02/19 04:23:11;;;;;;;69.57;38.00;;;;;;;;;;4996873;28;20050;-71
2022/02/19 04:25:37;;;;;;;53.72;33.42;;;;;;;;;;4996786;28;20042;-70
2022/02/19 04:28:07;;;;;;;61.78;36.28;;;;;;;;;;4996471;28;20121;-71
2022/02/19 04:30:33;;;;;;;66.25;37.70;;;;;;;;;;4996771;28;20562;-69
2022/02/19 04:33:00;;;;;;;66.25;35.25;;;;;;;;;;4996434;28;20034;-68
2022/02/19 04:35:27;;;;;;;60.88;35.20;;;;;;;;;;4996590;28;20053;-68
2022/02/19 04:37:54;;;;;;;61.50;35.95;;;;;;;;;;4996446;28;20491;-67
2022/02/19 04:40:21;;;;;;;60.75;34.97;;;;;;;;;;4996684;28;20081;-71
2022/02/19 04:42:47;;;;;;;66.10;35.53;;;;;;;;;;4996734;28;20045;-68
2022/02/19 04:45:14;;;;;;;65.35;38.03;;;;;;;;;;4996461;28;20093;-71
2022/02/19 04:47:41;;;;;;;62.45;36.80;;;;;;;;;;4996435;28;20030;-70
2022/02/19 04:50:08;;;;;;;62.53;36.10;;;;;;;;;;4995891;28;20417;-67
2022/02/19 04:52:34;;;;;;;62.78;36.47;;;;;;;;;;4996521;28;20399;-67
2022/02/19 04:55:00;;;;;;;62.38;35.55;;;;;;;;;;4996164;28;20115;-68
2022/02/19 04:57:26;;;;;;;61.60;35.72;;;;;;;;;;4996146;28;20035;-67
2022/02/19 04:59:52;;;;;;;59.55;35.97;;;;;;;;;;4996201;28;20045;-67
2022/02/19 05:02:18;;;;;;;57.65;35.92;;;;;;;;;;4996106;28;20125;-67
2022/02/19 05:04:45;;;;;;;56.95;36.63;;;;;;;;;;4995884;28;20047;-71
2022/02/19 05:07:11;;;;;;;57.03;33.92;;;;;;;;;;4995819;28;20035;-70
2022/02/19 05:09:37;;;;;;;56.67;34.58;;;;;;;;;;4995863;28;20042;-71
2022/02/19 05:12:03;;;;;;;54.53;31.88;;;;;;;;;;4995890;28;20199;-67
2022/02/19 05:14:30;;;;;;;53.83;33.33;;;;;;;;;;4996048;28;20039;-67
2022/02/19 05:16:56;;;;;;;62.25;36.60;;;;;;;;;;4995557;28;20094;-70
2022/02/19 05:19:22;;;;;;;50.35;33.78;;;;;;;;;;4995457;28;20561;-71
2022/02/19 05:21:48;;;;;;;57.65;34.65;;;;;;;;;;4995810;28;20455;-71
2022/02/19 05:24:14;;;;;;;54.88;34.15;;;;;;;;;;4995816;28;20038;-71
2022/02/19 05:26:41;;;;;;;54.80;33.83;;;;;;;;;;4994908;28;20117;-71
2022/02/19 05:29:07;;;;;;;51.60;32.67;;;;;;;;;;4995050;28;20038;-71
2022/02/19 05:31:33;;;;;;;55.00;34.38;;;;;;;;;;4995731;28;20031;-70
2022/02/19 05:34:00;;;;;;;53.05;33.80;;;;;;;;;;4995559;28;20422;-70
2022/02/19 05:36:26;;;;;;;56.00;34.25;;;;;;;;;;4995231;28;20515;-67
2022/02/19 05:38:54;;;;;;;49.28;31.88;;;;;;;;;;4995089;28;20034;-72
2022/02/19 05:41:20;;;;;;;45.50;31.05;;;;;;;;;;4995089;28;20498;-70
2022/02/19 05:43:46;;;;;;;51.13;32.60;;;;;;;;;;4995072;28;20043;-70
2022/02/19 05:46:12;;;;;;;48.35;30.60;;;;;;;;;;4995127;28;20035;-67
2022/02/19 05:48:38;;;;;;;48.78;31.88;;;;;;;;;;4995443;28;20030;-70
2022/02/19 05:51:04;;;;;;;45.13;31.23;;;;;;;;;;4995262;28;20031;-71
2022/02/19 05:53:30;;;;;;;48.90;31.98;;;;;;;;;;4995121;28;20030;-71
2022/02/19 05:55:56;;;;;;;45.17;30.80;;;;;;;;;;4995202;28;20037;-70
2022/02/19 05:58:22;;;;;;;43.40;29.23;;;;;;;;;;4995093;28;20063;-70
2022/02/19 06:00:48;;;;;;;47.78;31.38;;;;;;;;;;4995067;28;20029;-67
2022/02/19 06:03:15;;;;;;;43.33;28.67;;;;;;;;;;4994694;28;20133;-69
2022/02/19 06:05:41;;;;;;;46.95;30.27;;;;;;;;;;4994831;28;20026;-70
2022/02/19 06:08:07;;;;;;;42.22;27.88;;;;;;;;;;4994893;28;20475;-70
2022/02/19 06:10:33;;;;;;;40.10;27.67;;;;;;;;;;4994555;28;20146;-71
2022/02/19 06:12:59;;;;;;;41.60;28.83;;;;;;;;;;4995055;28;20474;-68
2022/02/19 06:15:25;;;;;;;42.60;28.92;;;;;;;;;;4994808;28;20031;-67
2022/02/19 06:17:51;;;;;;;42.22;28.55;;;;;;;;;;4994707;28;20408;-71
2022/02/19 06:20:17;;;;;;;43.67;27.95;;;;;;;;;;4994474;28;20133;-71
2022/02/19 06:22:43;;;;;;;43.65;30.80;;;;;;;;;;4994437;28;20125;-68
2022/02/19 06:25:09;;;;;;;49.85;32.92;;;;;;;;;;4994744;28;20129;-68
2022/02/19 06:27:39;;;;;;;49.33;32.08;;;;;;;;;;4994139;28;20039;-70
2022/02/19 06:30:05;;;;;;;44.33;30.23;;;;;;;;;;4994157;28;20042;-67
2022/02/19 06:32:32;;;;;;;47.67;31.83;;;;;;;;;;4994108;28;20483;-68
2022/02/19 06:34:58;;;;;;;45.20;30.45;;;;;;;;;;4993893;28;20129;-67
2022/02/19 06:37:24;;;;;;;47.80;29.88;;;;;;;;;;4994187;28;20061;-70
2022/02/19 06:39:50;;;;;;;43.15;28.80;;;;;;;;;;4993586;28;20030;-70
2022/02/19 06:42:16;;;;;;;45.22;29.27;;;;;;;;;;4994448;28;20034;-71
2022/02/19 06:44:42;;;;;;;45.35;28.02;;;;;;;;;;4994264;28;20460;-67
2022/02/19 06:47:08;;;;;;;37.35;26.83;;;;;;;;;;4994077;28;20150;-70
2022/02/19 06:49:34;;;;;;;44.65;27.98;;;;;;;;;;4994123;28;20026;-68
2022/02/19 06:52:00;;;;;;;44.70;28.52;;;;;;;;;;4994247;28;20030;-67
2022/02/19 06:54:26;;;;;;;42.42;29.58;;;;;;;;;;4994105;28;20045;-68
2022/02/19 06:56:55;;;;;;;43.30;28.25;;;;;;;;;;4994210;28;20089;-70
2022/02/19 06:59:21;;;;;;;42.10;28.35;;;;;;;;;;4994345;28;20484;-70
2022/02/19 07:01:47;;;;;;;43.45;29.10;;;;;;;;;;4993815;28;20031;-66
2022/02/19 07:04:15;;;;;;;42.03;28.35;;;;;;;;;;4993891;28;20053;-67
2022/02/19 07:06:41;;;;;;;43.92;28.88;;;;;;;;;;4994092;28;20058;-67
2022/02/19 07:09:08;;;;;;;42.15;27.88;;;;;;;;;;4994116;28;20030;-67
2022/02/19 07:11:34;;;;;;;39.63;27.30;;;;;;;;;;4993918;28;20122;-67
2022/02/19 07:14:00;;;;;;;39.72;27.42;;;;;;;;;;4993853;28;20146;-71
2022/02/19 07:16:26;;;;;;;39.88;27.58;;;;;;;;;;4993645;28;20051;-67
2022/02/19 07:18:52;;;;;;;44.42;27.63;;;;;;;;;;4993963;28;20399;-70
2022/02/19 07:21:18;;;;;;;39.42;27.45;;;;;;;;;;4993724;28;20471;-69
2022/02/19 07:23:44;;;;;;;42.33;27.67;;;;;;;;;;4993900;28;20046;-67
2022/02/19 07:26:10;;;;;;;38.63;26.58;;;;;;;;;;4993687;28;20403;-67
2022/02/19 07:28:36;;;;;;;40.47;27.77;;;;;;;;;;4993544;28;20045;-67
2022/02/19 07:31:02;;;;;;;39.78;27.10;;;;;;;;;;4991365;28;20459;-71
2022/02/19 07:33:29;;;;;;;35.13;25.35;;;;;;;;;;4993359;28;20051;-70
2022/02/19 07:35:55;;;;;;;39.70;26.60;;;;;;;;;;4995063;28;20030;-71
2022/02/19 07:38:21;;;;;;;35.20;25.02;;;;;;;;;;4991348;28;20061;-70
2022/02/19 07:40:47;;;;;;;38.67;26.63;;;;;;;;;;5013363;28;20056;-69
2022/02/19 07:43:13;;;;;;;36.20;25.85;;;;;;;;;;5012629;28;20049;-68
2022/02/19 07:45:39;;;;;;;35.03;24.23;;;;;;;;;;5004651;28;20165;-70
2022/02/19 07:48:05;;;;;;;43.03;29.02;;;;;;;;;;4993285;28;20083;-67
2022/02/19 07:58:45;;;;;;;37.13;26.75;;;;;;;;;;4993212;28;20146;-71
2022/02/19 08:01:12;;;;;;;35.85;26.95;;;;;;;;;;5005544;28;20133;-70
2022/02/19 08:03:38;;;;;;;35.47;27.00;;;;;;;;;;5011958;28;20050;-64
2022/02/19 08:06:05;;;;;;;37.08;26.98;;;;;;;;;;5012226;28;20040;-66
2022/02/19 08:08:31;;;;;;;45.40;32.20;;;;;;;;;;4999043;28;20507;-69
2022/02/19 08:10:57;;;;;;;38.78;30.30;;;;;;;;;;4992235;28;20491;-66
2022/02/19 08:13:23;;;;;;;38.88;31.33;;;;;;;;;;4992218;28;20035;-70
2022/02/19 08:15:50;;;;;;;41.38;31.30;;;;;;;;;;4992415;28;20034;-65
2022/02/19 08:18:16;;;;;;;42.95;32.80;;;;;;;;;;4992594;28;20039;-64
2022/02/19 08:20:43;;;;;;;40.78;31.85;;;;;;;;;;4992624;28;20117;-64
2022/02/19 08:23:10;;;;;;;38.00;30.27;;;;;;;;;;4993063;28;20133;-72
2022/02/19 08:25:36;;;;;;;37.97;30.77;;;;;;;;;;4992793;28;20102;-62
2022/02/19 08:28:05;;;;;;;43.08;30.40;;;;;;;;;;4992789;28;20034;-74
2022/02/19 08:30:32;;;;;;;40.13;30.27;;;;;;;;;;4988539;28;20491;-74
2022/02/19 08:32:58;;;;;;;41.83;30.85;;;;;;;;;;4989253;28;20735;-63
2022/02/19 08:35:24;;;;;;;41.50;30.17;;;;;;;;;;4990562;28;20049;-75
2022/02/19 08:37:50;;;;;;;39.00;31.40;;;;;;;;;;4992114;28;20074;-70
2022/02/19 08:40:16;;;;;;;34.63;27.48;;;;;;;;;;4992751;28;20035;-72
2022/02/19 08:42:43;;;;;;;39.20;29.52;;;;;;;;;;4992002;28;20041;-63
2022/02/19 08:45:10;;;;;;;39.78;29.90;;;;;;;;;;4992431;28;20479;-75
2022/02/19 08:47:36;;;;;;;34.25;27.20;;;;;;;;;;4991796;28;20038;-64
2022/02/19 08:50:02;;;;;;;32.42;25.30;;;;;;;;;;4991949;28;20401;-65
2022/02/19 08:52:29;;;;;;;33.90;26.52;;;;;;;;;;4991221;28;20030;-64
2022/02/19 08:54:55;;;;;;;34.20;26.17;;;;;;;;;;4992418;28;20031;-70
2022/02/19 08:57:21;;;;;;;32.72;24.52;;;;;;;;;;4992442;28;20033;-77
2022/02/19 08:59:47;;;;;;;32.58;25.75;;;;;;;;;;4991629;28;20038;-65
2022/02/19 09:02:13;;;;;;;35.42;26.38;;;;;;;;;;4993659;28;20097;-68
2022/02/19 09:04:39;;;;;;;35.33;26.60;;;;;;;;;;4995428;28;20046;-76
2022/02/19 09:07:05;;;;;;;31.85;25.13;;;;;;;;;;4995513;28;20110;-74
2022/02/19 09:09:33;;;;;;;31.67;24.33;;;;;;;;;;4996184;28;20545;-63
2022/02/19 09:12:00;;;;;;;31.95;24.33;;;;;;;;;;4996299;28;20109;-64
2022/02/19 09:14:26;;;;;;;29.95;23.25;;;;;;;;;;4995953;28;20037;-64
2022/02/19 09:16:53;;;;;;;30.05;22.83;;;;;;;;;;4995914;28;20117;-64
2022/02/19 09:19:19;;;;;;;31.45;25.05;;;;;;;;;;4993456;28;20072;-65
2022/02/19 09:21:46;;;;;;;30.67;24.42;;;;;;;;;;4993142;28;20670;-73
2022/02/19 09:24:12;;;;;;;32.55;25.65;;;;;;;;;;4993811;28;20050;-74
2022/02/19 09:26:38;;;;;;;29.90;24.67;;;;;;;;;;4995629;28;20113;-75
2022/02/19 09:29:04;;;;;;;29.27;23.75;;;;;;;;;;4995357;28;20030;-74
2022/02/19 09:31:30;;;;;;;32.38;26.05;;;;;;;;;;4995797;28;20395;-66
2022/02/19 09:33:57;;;;;;;32.78;24.65;;;;;;;;;;4995529;28;20082;-73
2022/02/19 09:36:23;;;;;;;30.15;23.60;;;;;;;;;;4995958;28;20503;-72
2022/02/19 09:38:49;;;;;;;29.33;22.98;;;;;;;;;;4995354;28;20137;-66
2022/02/19 09:41:16;;;;;;;30.70;23.00;;;;;;;;;;4995735;28;20038;-64
2022/02/19 09:43:42;;;;;;;30.50;24.02;;;;;;;;;;4995172;28;20046;-65
2022/02/19 09:46:08;;;;;;;27.85;21.55;;;;;;;;;;4995627;28;20038;-64
2022/02/19 09:48:34;;;;;;;28.58;22.85;;;;;;;;;;4995737;28;20034;-65
2022/02/19 09:51:01;;;;;;;33.70;25.15;;;;;;;;;;4995953;28;20427;-66
2022/02/19 09:53:27;;;;;;;35.20;25.58;;;;;;;;;;4995323;28;20038;-73
2022/02/19 09:55:54;;;;;;;30.50;23.52;;;;;;;;;;4994248;28;20048;-70
2022/02/19 09:58:20;;;;;;;28.80;22.33;;;;;;;;;;4995161;28;20042;-63
2022/02/19 10:00:47;;;;;;;31.58;24.83;;;;;;;;;;4995046;28;20114;-64
2022/02/19 10:03:23;;;;;;;34.15;24.83;;;;;;;;;;4995297;28;20050;-65
2022/02/19 10:05:50;;;;;;;33.63;25.23;;;;;;;;;;4995437;28;20093;-64
2022/02/19 10:08:16;;;;;;;32.15;24.30;;;;;;;;;;4995366;28;20443;-64
2022/02/19 10:10:52;;;;;;;34.53;25.50;;;;;;;;;;4995416;28;20038;-64
2022/02/19 10:13:33;;;;;;;32.88;24.08;;;;;;;;;;4994206;28;20042;-64
2022/02/19 10:15:59;;;;;;;32.72;25.17;;;;;;;;;;4995079;28;20045;-65
2022/02/19 10:18:29;;;;;;;34.58;27.77;;;;;;;;;;4995160;28;20116;-65
2022/02/19 10:21:14;;;;;;;34.95;25.55;;;;;;;;;;4994133;28;20030;-65
2022/02/19 10:23:42;;;;;;;39.47;28.33;;;;;;;;;;4993944;28;20055;-69
2022/02/19 10:26:08;;;;;;;37.50;27.42;;;;;;;;;;4994372;28;20042;-67
2022/02/19 10:28:35;;;;;;;34.33;26.90;;;;;;;;;;4995065;28;20038;-74
2022/02/19 10:31:14;;;;;;;31.83;26.17;;;;;;;;;;4995083;28;20045;-73
2022/02/19 10:33:40;;;;;;;35.72;26.35;;;;;;;;;;4994260;28;20515;-66
2022/02/19 10:36:21;;;;;;;35.05;26.77;;;;;;;;;;4993507;28;20479;-64
2022/02/19 10:38:55;;;;;;;34.65;26.77;;;;;;;;;;4994317;28;20057;-72
2022/02/19 10:41:32;;;;;;;35.90;27.90;;;;;;;;;;4994249;28;20038;-65
2022/02/19 10:43:58;;;;;;;36.53;29.05;;;;;;;;;;4994186;28;20439;-73
2022/02/19 10:46:27;;;;;;;36.80;27.55;;;;;;;;;;4994222;28;20080;-65
2022/02/19 10:48:53;;;;;;;33.00;25.85;;;;;;;;;;4993993;28;20042;-64
2022/02/19 10:51:19;;;;;;;33.20;25.92;;;;;;;;;;4994306;28;20038;-65
2022/02/19 10:53:58;;;;;;;32.20;23.65;;;;;;;;;;4994635;28;20038;-72
2022/02/19 10:56:27;;;;;;;32.25;24.85;;;;;;;;;;4994178;28;20407;-64
2022/02/19 10:59:00;;;;;;;26.88;21.65;;;;;;;;;;4994205;28;20034;-73
2022/02/19 11:01:26;;;;;;;28.77;22.40;;;;;;;;;;4993941;28;20033;-72
2022/02/19 11:03:52;;;;;;;27.88;20.58;;;;;;;;;;4993920;28;20050;-73
2022/02/19 11:06:18;;;;;;;26.08;19.25;;;;;;;;;;4993771;28;20030;-72
2022/02/19 11:08:45;;;;;;;24.95;18.80;;;;;;;;;;4993855;28;20058;-65
2022/02/19 11:11:12;;;;;;;25.05;18.58;;;;;;;;;;4993803;28;20034;-64
2022/02/19 11:13:38;;;;;;;21.67;17.38;;;;;;;;;;4993996;28;20165;-65
2022/02/19 11:16:05;;;;;;;18.05;14.10;;;;;;;;;;4993721;28;20097;-72
2022/02/19 11:18:34;;;;;;;21.40;16.10;;;;;;;;;;4993749;28;20070;-72
2022/02/19 11:21:05;;;;;;;20.23;14.73;;;;;;;;;;4993928;28;20089;-72
2022/02/19 11:23:32;;;;;;;19.70;15.65;;;;;;;;;;4993515;28;20485;-73
2022/02/19 11:25:58;;;;;;;22.02;15.98;;;;;;;;;;4993703;28;20038;-73
2022/02/19 11:28:26;;;;;;;21.00;16.00;;;;;;;;;;4993919;28;20030;-72
2022/02/19 11:30:55;;;;;;;18.58;15.48;;;;;;;;;;4993874;28;20085;-72
2022/02/19 11:33:21;;;;;;;21.08;15.35;;;;;;;;;;4993646;28;20031;-72
2022/02/19 11:35:48;;;;;;;19.48;15.60;;;;;;;;;;4993442;28;20038;-74
2022/02/19 11:38:35;;;;;;;18.83;15.75;;;;;;;;;;4993522;28;20506;-74
2022/02/19 11:41:10;;;;;;;19.90;15.35;;;;;;;;;;4993311;28;20046;-73
2022/02/19 11:43:38;;;;;;;16.88;14.48;;;;;;;;;;4993249;28;20054;-72
2022/02/19 11:46:16;;;;;;;22.75;18.25;;;;;;;;;;4993427;28;20034;-73
2022/02/19 11:48:46;;;;;;;21.20;16.27;;;;;;;;;;4993469;28;20050;-73
2022/02/19 11:51:17;;;;;;;18.23;15.18;;;;;;;;;;4993316;28;20031;-69
2022/02/19 11:53:44;;;;;;;20.70;15.70;;;;;;;;;;4993785;28;20037;-69
2022/02/19 11:56:11;;;;;;;24.33;17.40;;;;;;;;;;4993591;28;20038;-73
2022/02/19 11:58:53;;;;;;;20.17;15.85;;;;;;;;;;4993515;28;20053;-72
2022/02/19 12:01:19;;;;;;;19.83;15.23;;;;;;;;;;4993258;28;20053;-73
2022/02/19 12:03:46;;;;;;;24.65;15.95;;;;;;;;;;4993200;28;20042;-74
2022/02/19 12:06:16;;;;;;;21.35;14.45;;;;;;;;;;4993262;28;20472;-73
2022/02/19 12:08:48;;;;;;;19.50;14.60;;;;;;;;;;4993317;28;20038;-67
2022/02/19 12:11:21;;;;;;;15.60;13.38;;;;;;;;;;4993580;28;20042;-69
2022/02/19 12:13:48;;;;;;;15.60;12.35;;;;;;;;;;4993298;28;20130;-68
2022/02/19 12:16:34;;;;;;;17.55;13.18;;;;;;;;;;4993303;28;20109;-67
2022/02/19 12:19:00;;;;;;;14.10;11.70;;;;;;;;;;4993395;28;20050;-70
2022/02/19 12:21:46;;;;;;;15.25;11.73;;;;;;;;;;4993421;28;20449;-66
2022/02/19 12:24:12;;;;;;;13.95;10.80;;;;;;;;;;4993348;28;20126;-69
2022/02/19 12:27:07;;;;;;;15.63;10.68;;;;;;;;;;4993114;28;20027;-67
2022/02/19 12:29:35;;;;;;;13.27;10.60;;;;;;;;;;4992752;28;20047;-68
2022/02/19 12:32:05;;;;;;;12.63;10.35;;;;;;;;;;4992829;28;20068;-68
2022/02/19 12:34:32;;;;;;;14.75;11.18;;;;;;;;;;4992982;28;20089;-68
2022/02/19 12:36:59;;;;;;;13.02;10.95;;;;;;;;;;4994142;28;20438;-68
2022/02/19 12:39:26;;;;;;;17.45;11.73;;;;;;;;;;4996328;28;20037;-68
2022/02/19 12:41:58;;;;;;;12.85;11.38;;;;;;;;;;4996593;28;20030;-68
2022/02/19 12:44:25;;;;;;;13.57;11.40;;;;;;;;;;4996484;28;20129;-68
2022/02/19 12:46:55;;;;;;;16.52;11.75;;;;;;;;;;4996190;28;20093;-70
2022/02/19 12:49:23;;;;;;;12.45;10.75;;;;;;;;;;4996653;28;20089;-67
2022/02/19 12:51:57;;;;;;;13.18;10.70;;;;;;;;;;4996593;28;20042;-67
2022/02/19 12:54:32;;;;;;;11.27;9.40;;;;;;;;;;4996511;28;20458;-68
2022/02/19 12:56:58;;;;;;;9.95;8.30;;;;;;;;;;4996000;28;20034;-66
2022/02/19 12:59:39;;;;;;;11.75;9.38;;;;;;;;;;4996011;28;20062;-67
2022/02/19 13:02:06;;;;;;;10.88;8.25;;;;;;;;;;4994232;28;20053;-66
2022/02/19 13:04:34;;;;;;;9.68;7.85;;;;;;;;;;4993405;28;20129;-67
2022/02/19 13:08:44;;;;;;;10.63;8.18;;;;;;;;;;5130075;27;20572;-66
2022/02/19 13:11:12;;;;;;;11.93;8.25;;;;;;;;;;5131305;28;20031;-66
2022/02/19 13:13:39;;;;;;;12.45;9.45;;;;;;;;;;5131348;28;20057;-66
2022/02/19 13:16:07;;;;;;;11.40;8.95;;;;;;;;;;5131326;28;20114;-72
2022/02/19 13:18:41;;;;;;;12.43;10.00;;;;;;;;;;5131085;28;20023;-66
2022/02/19 13:21:08;;;;;;;11.75;9.73;;;;;;;;;;5131089;28;20028;-66
2022/02/19 13:23:34;;;;;;;11.40;9.27;;;;;;;;;;5130854;28;20051;-66
2022/02/19 13:26:00;;;;;;;11.23;8.80;;;;;;;;;;5131175;28;20051;-79
2022/02/19 13:28:26;;;;;;;10.90;8.95;;;;;;;;;;5131120;28;20439;-78
2022/02/19 13:30:52;;;;;;;11.68;8.77;;;;;;;;;;5131357;28;20041;-76
2022/02/19 13:33:19;;;;;;;12.55;8.80;;;;;;;;;;5130518;28;20027;-65
2022/02/19 13:35:46;;;;;;;12.45;9.77;;;;;;;;;;5128199;28;20028;-66
2022/02/19 13:38:12;;;;;;;16.15;10.15;;;;;;;;;;5127619;28;20032;-65
2022/02/19 13:40:38;;;;;;;15.50;11.32;;;;;;;;;;5129316;28;20076;-75
2022/02/19 13:43:19;;;;;;;17.67;10.43;;;;;;;;;;5130763;28;20424;-65
2022/02/19 13:45:46;;;;;;;10.13;8.35;;;;;;;;;;5130588;28;20046;-66
2022/02/19 13:48:16;;;;;;;11.90;9.20;;;;;;;;;;5130614;28;20031;-65
2022/02/19 13:50:43;;;;;;;10.80;8.82;;;;;;;;;;5130448;28;20022;-78
2022/02/19 13:53:13;;;;;;;12.07;9.57;;;;;;;;;;5129539;28;20102;-66
2022/02/19 13:55:41;;;;;;;10.07;8.13;;;;;;;;;;5129537;28;20475;-78
2022/02/19 13:58:12;;;;;;;10.82;9.02;;;;;;;;;;5129886;28;20379;-66
2022/02/19 14:00:38;;;;;;;10.35;7.43;;;;;;;;;;5129308;28;20059;-79
2022/02/19 14:03:04;;;;;;;10.73;7.97;;;;;;;;;;5130069;28;20046;-67
2022/02/19 14:05:46;;;;;;;11.32;8.32;;;;;;;;;;5130089;28;20069;-75
2022/02/19 14:08:18;;;;;;;9.07;8.17;;;;;;;;;;5129876;28;20128;-78
2022/02/19 14:11:10;;;;;;;11.10;8.90;;;;;;;;;;5130154;28;20340;-78
2022/02/19 14:13:36;;;;;;;11.93;9.82;;;;;;;;;;5126908;27;20206;-66
2022/02/19 14:16:16;;;;;;;11.45;9.15;;;;;;;;;;5128812;28;20128;-74
2022/02/19 14:18:42;;;;;;;13.05;8.50;;;;;;;;;;5123247;28;20102;-79
2022/02/19 14:21:19;;;;;;;10.75;8.85;;;;;;;;;;5116050;28;20034;-65
2022/02/19 14:23:45;;;;;;;11.98;9.55;;;;;;;;;;5115208;28;20153;-66
2022/02/19 14:26:12;;;;;;;10.80;8.80;;;;;;;;;;5115469;28;20023;-65
2022/02/19 14:28:38;;;;;;;11.55;8.05;;;;;;;;;;5114554;28;20030;-65
2022/02/19 14:31:04;;;;;;;8.93;7.93;;;;;;;;;;5114676;28;20078;-66